Aérodrome :
LOGIN :

S'inscrire | Disclaimer

   EN    FR    IT 

 










Légende :    VFR   VFR Marginal   IFR   IFR Intensif   IFR Très Intensif
Visi : 
Plafond : 
>= 8 km
>= 3000ft
5 à 8 km
1000 à 3000 ft
1500m à 5 km
500 à 1000 ft
800 à 1500m
200 à 500 ft
< 800m
< 200 ft
Symboles :   Orages  Brouillard  Fortes neiges  Fortes précipitations  Vent > 20 kt
SIGMETs :   Divers  Orages  Givrage  Turbulence  Onde Orograph.  Cendres Volcan.






- Altitude de l'aérodrome : 352 ft
- Code IATA : ARW


LRAR - Arad International

DERNIER METAR :
  • 141730Z 08004KT CAVOK 19/11 Q1019

METARs EXPIRÉS :
  • 141700Z 07004KT CAVOK 18/12 Q1019
  • 141630Z VRB02KT CAVOK 19/13 Q1019
  • 141600Z 00000KT CAVOK 20/12 Q1019
  • 141530Z 35003KT CAVOK 23/11 Q1019
  • 141500Z 35001KT CAVOK 24/11 Q1019

TAF TAF LRAR
Valide du 14 à 18h jusqu'au 15 à 03h UTC


141700Z 1418/1503 VRB04KT CAVOK



MET'MAP, la Météo Aéronautique d'un coup d'oeil ! - Copyright ORBIFLY Décembre 2007 - Disclaimer

ORBIFLY MET'MAP TEAM :

Programmation & Développement : Alexandra Zaïnal
Conception & Développement : Baudouin d'Aumeries
Co-Programmation & Développement : Marc-Olivier Méhu
Soutien technique & logistique : Manuel Goepfert

Contact : metmap@orbifly.com




SOURCES & CREDITS :

   NOAA